createdAt,value
2019-01-12T00:00:11.152Z,1013.2
2019-01-12T00:01:12.514Z,1013.2
2019-01-12T00:02:13.884Z,1013.2
2019-01-12T00:03:15.249Z,1013.2
2019-01-12T00:04:16.620Z,1013.2
2019-01-12T00:05:17.990Z,1013.2
2019-01-12T00:06:19.365Z,1013.1
2019-01-12T00:07:20.736Z,1013.2
2019-01-12T00:08:22.108Z,1013.2
2019-01-12T00:09:23.469Z,1013.2
2019-01-12T00:10:24.835Z,1013.2
2019-01-12T00:11:26.198Z,1013.2
2019-01-12T00:12:27.554Z,1013.2
2019-01-12T00:13:28.926Z,1013.2
2019-01-12T00:14:30.298Z,1013.2
2019-01-12T00:15:31.670Z,1013.2
2019-01-12T00:16:33.020Z,1013.2
2019-01-12T00:17:34.383Z,1013.2
2019-01-12T00:18:35.753Z,1013.2
2019-01-12T00:19:37.113Z,1013.1
2019-01-12T00:20:38.483Z,1013.2
2019-01-12T00:21:39.846Z,1013.2
2019-01-12T00:22:41.277Z,1013.2
2019-01-12T00:23:42.648Z,1013.2
2019-01-12T00:24:44.032Z,1013.2
2019-01-12T00:25:45.563Z,1013.1
2019-01-12T00:26:47.046Z,1013.2
2019-01-12T00:27:48.538Z,1013.2
2019-01-12T00:28:50.039Z,1013.2
2019-01-12T00:29:51.444Z,1013.2
2019-01-12T00:30:52.961Z,1013.1
2019-01-12T00:31:54.426Z,1013.2
2019-01-12T00:32:55.937Z,1013.1
2019-01-12T00:33:57.408Z,1013.1
2019-01-12T00:34:58.817Z,1013.1
2019-01-12T00:36:00.219Z,1013.1
2019-01-12T00:37:01.748Z,1013.1
2019-01-12T00:38:03.220Z,1013.1
2019-01-12T00:39:04.612Z,1013.1
2019-01-12T00:40:06.049Z,1013.1
2019-01-12T00:41:07.429Z,1013.1
2019-01-12T00:42:08.818Z,1013.1
2019-01-12T00:43:10.266Z,1013.1
2019-01-12T00:44:11.721Z,1013.1
2019-01-12T00:45:13.158Z,1013.1
2019-01-12T00:46:14.572Z,1013.1
2019-01-12T00:47:15.965Z,1013.1
2019-01-12T00:48:17.402Z,1013.1
2019-01-12T00:49:18.822Z,1013.1
2019-01-12T00:50:20.237Z,1013.1
2019-01-12T00:51:21.619Z,1013.1
2019-01-12T00:52:23.038Z,1013.1
2019-01-12T00:53:24.455Z,1013.1
2019-01-12T00:54:27.114Z,1013.1
2019-01-12T00:55:27.222Z,1013.0
2019-01-12T00:56:28.679Z,1013.1
2019-01-12T00:57:30.043Z,1013.0
2019-01-12T00:58:31.413Z,1013.1
2019-01-12T00:59:32.789Z,1013.1
2019-01-12T01:00:34.156Z,1013.1
2019-01-12T01:01:35.520Z,1013.0
2019-01-12T01:02:36.885Z,1013.1
2019-01-12T01:03:38.248Z,1013.1
2019-01-12T01:04:39.623Z,1013.1
2019-01-12T01:05:40.980Z,1013.1
2019-01-12T01:06:42.347Z,1013.0
2019-01-12T01:07:43.708Z,1013.0
2019-01-12T01:08:45.074Z,1013.0
2019-01-12T01:09:46.446Z,1013.0
2019-01-12T01:10:47.814Z,1013.0
2019-01-12T01:11:49.180Z,1012.9
2019-01-12T01:12:50.552Z,1012.9
2019-01-12T01:13:51.914Z,1012.9
2019-01-12T01:14:53.299Z,1013.0
2019-01-12T01:15:54.665Z,1013.0
2019-01-12T01:16:56.035Z,1012.9
2019-01-12T01:17:57.407Z,1013.0
2019-01-12T01:18:58.770Z,1013.0
2019-01-12T01:20:00.254Z,1013.0
2019-01-12T01:21:01.463Z,1013.0
2019-01-12T01:22:02.825Z,1013.0
2019-01-12T01:23:04.188Z,1013.0
2019-01-12T01:24:05.561Z,1013.0
2019-01-12T01:25:07.020Z,1013.0
2019-01-12T01:26:08.386Z,1013.0
2019-01-12T01:27:09.750Z,1013.0
2019-01-12T01:28:11.112Z,1013.1
2019-01-12T01:29:12.480Z,1013.0
2019-01-12T01:30:13.844Z,1013.0
2019-01-12T01:31:15.208Z,1013.0
2019-01-12T01:32:16.575Z,1013.1
2019-01-12T01:33:17.940Z,1013.0
2019-01-12T01:34:19.303Z,1013.1
2019-01-12T01:35:20.660Z,1013.1
2019-01-12T01:36:22.048Z,1013.0
2019-01-12T01:37:23.400Z,1013.1
2019-01-12T01:38:24.765Z,1013.1
2019-01-12T01:39:26.128Z,1013.1
2019-01-12T01:40:27.494Z,1013.1
2019-01-12T01:41:28.860Z,1013.1
2019-01-12T01:42:30.223Z,1013.1
2019-01-12T01:43:31.587Z,1013.1
2019-01-12T01:44:32.960Z,1013.1
2019-01-12T01:45:34.323Z,1013.1
2019-01-12T01:46:35.687Z,1013.1
2019-01-12T01:47:37.054Z,1013.1
2019-01-12T01:48:38.415Z,1013.1
2019-01-12T01:49:39.778Z,1013.1
2019-01-12T01:50:41.150Z,1013.1
2019-01-12T01:51:42.506Z,1013.1
2019-01-12T01:52:43.909Z,1013.1
2019-01-12T01:53:45.270Z,1013.1
2019-01-12T01:54:52.604Z,1013.1
2019-01-12T01:55:47.961Z,1013.1
2019-01-12T01:56:49.335Z,1013.1
2019-01-12T01:57:50.700Z,1013.2
2019-01-12T01:58:52.062Z,1013.2
2019-01-12T01:59:53.428Z,1013.1
2019-01-12T02:00:54.788Z,1013.1
2019-01-12T02:01:56.160Z,1013.1
2019-01-12T02:02:57.519Z,1013.1
2019-01-12T02:03:58.882Z,1013.1
2019-01-12T02:05:00.243Z,1013.0
2019-01-12T02:06:01.604Z,1013.0
2019-01-12T02:07:02.962Z,1013.0
2019-01-12T02:08:04.337Z,1013.0
2019-01-12T02:09:05.705Z,1013.0
2019-01-12T02:10:07.065Z,1012.9
2019-01-12T02:11:08.429Z,1013.0
2019-01-12T02:12:09.791Z,1012.9
2019-01-12T02:13:11.160Z,1013.0
2019-01-12T02:14:12.525Z,1012.9
2019-01-12T02:15:13.887Z,1012.9
2019-01-12T02:16:15.252Z,1013.0
2019-01-12T02:17:16.619Z,1012.9
2019-01-12T02:18:17.978Z,1012.9
2019-01-12T02:19:19.346Z,1012.9
2019-01-12T02:20:20.710Z,1012.9
2019-01-12T02:21:22.070Z,1012.8
2019-01-12T02:22:23.436Z,1012.9
2019-01-12T02:23:24.804Z,1012.8
2019-01-12T02:24:26.169Z,1012.9
2019-01-12T02:25:27.530Z,1012.8
2019-01-12T02:26:28.892Z,1012.9
2019-01-12T02:27:30.256Z,1012.8
2019-01-12T02:28:31.620Z,1012.9
2019-01-12T02:29:32.985Z,1012.9
2019-01-12T02:30:34.351Z,1012.9
2019-01-12T02:31:35.722Z,1012.9
2019-01-12T02:32:37.075Z,1012.8
2019-01-12T02:33:38.445Z,1012.8
2019-01-12T02:34:39.859Z,1012.8
2019-01-12T02:35:41.175Z,1012.8
2019-01-12T02:36:42.539Z,1012.8
2019-01-12T02:37:43.902Z,1012.8
2019-01-12T02:38:45.265Z,1012.8
2019-01-12T02:39:46.630Z,1012.8
2019-01-12T02:40:47.991Z,1012.8
2019-01-12T02:41:49.360Z,1012.8
2019-01-12T02:42:50.730Z,1012.8
2019-01-12T02:43:52.092Z,1012.7
2019-01-12T02:44:53.454Z,1012.8
2019-01-12T02:45:54.823Z,1012.8
2019-01-12T02:46:56.186Z,1012.7
2019-01-12T02:47:57.551Z,1012.8
2019-01-12T02:48:58.915Z,1012.7
2019-01-12T02:50:00.280Z,1012.7
2019-01-12T02:51:01.643Z,1012.7
2019-01-12T02:52:03.001Z,1012.7
2019-01-12T02:53:04.375Z,1012.7
2019-01-12T02:54:05.735Z,1012.6
2019-01-12T02:55:08.975Z,1012.6
2019-01-12T02:56:08.428Z,1012.6
2019-01-12T02:57:09.795Z,1012.6
2019-01-12T02:58:11.160Z,1012.6
2019-01-12T02:59:12.524Z,1012.6
2019-01-12T03:00:13.895Z,1012.6
2019-01-12T03:01:15.256Z,1012.6
2019-01-12T03:02:16.614Z,1012.6
2019-01-12T03:03:17.975Z,1012.6
2019-01-12T03:04:19.342Z,1012.5
2019-01-12T03:05:20.707Z,1012.6
2019-01-12T03:06:22.075Z,1012.5
2019-01-12T03:07:23.437Z,1012.5
2019-01-12T03:08:24.801Z,1012.5
2019-01-12T03:09:26.180Z,1012.5
2019-01-12T03:10:27.528Z,1012.5
2019-01-12T03:11:28.887Z,1012.5
2019-01-12T03:12:30.257Z,1012.4
2019-01-12T03:13:31.623Z,1012.4
2019-01-12T03:14:32.986Z,1012.4
2019-01-12T03:15:34.345Z,1012.4
2019-01-12T03:16:35.713Z,1012.5
2019-01-12T03:17:37.077Z,1012.4
2019-01-12T03:18:38.441Z,1012.5
2019-01-12T03:19:39.807Z,1012.4
2019-01-12T03:20:41.172Z,1012.4
2019-01-12T03:21:44.422Z,1012.4
2019-01-12T03:22:43.868Z,1012.4
2019-01-12T03:23:45.230Z,1012.4
2019-01-12T03:24:46.592Z,1012.4
2019-01-12T03:25:47.960Z,1012.4
2019-01-12T03:26:49.326Z,1012.4
2019-01-12T03:27:50.687Z,1012.4
2019-01-12T03:28:52.063Z,1012.4
2019-01-12T03:29:53.412Z,1012.4
2019-01-12T03:30:54.776Z,1012.4
2019-01-12T03:31:56.147Z,1012.4
2019-01-12T03:32:57.510Z,1012.4
2019-01-12T03:33:58.871Z,1012.3
2019-01-12T03:35:00.266Z,1012.3
2019-01-12T03:36:01.602Z,1012.3
2019-01-12T03:37:02.970Z,1012.3
2019-01-12T03:38:04.326Z,1012.3
2019-01-12T03:39:05.693Z,1012.3
2019-01-12T03:40:07.057Z,1012.2
2019-01-12T03:41:08.421Z,1012.2
2019-01-12T03:42:09.788Z,1012.2
2019-01-12T03:43:11.155Z,1012.2
2019-01-12T03:44:12.520Z,1012.3
2019-01-12T03:45:13.881Z,1012.3
2019-01-12T03:46:15.243Z,1012.2
2019-01-12T03:47:16.608Z,1012.2
2019-01-12T03:48:17.976Z,1012.2
2019-01-12T03:49:19.346Z,1012.2
2019-01-12T03:50:20.709Z,1012.2
2019-01-12T03:51:22.068Z,1012.1
2019-01-12T03:52:23.432Z,1012.2
2019-01-12T03:53:24.797Z,1012.1
2019-01-12T03:54:26.206Z,1012.1
2019-01-12T03:55:27.533Z,1012.1
2019-01-12T03:56:28.903Z,1012.2
2019-01-12T03:57:30.271Z,1012.1
2019-01-12T03:58:31.634Z,1012.1
2019-01-12T03:59:33.000Z,1012.1
2019-01-12T04:00:34.359Z,1012.1
2019-01-12T04:01:35.731Z,1012.1
2019-01-12T04:02:37.104Z,1012.1
2019-01-12T04:03:38.486Z,1012.0
2019-01-12T04:04:39.848Z,1012.0
2019-01-12T04:05:41.216Z,1012.1
2019-01-12T04:06:42.580Z,1012.1
2019-01-12T04:07:43.944Z,1012.0
2019-01-12T04:08:45.310Z,1012.0
2019-01-12T04:09:46.671Z,1012.0
2019-01-12T04:10:48.039Z,1012.0
2019-01-12T04:11:49.407Z,1012.0
2019-01-12T04:12:50.771Z,1012.0
2019-01-12T04:13:52.128Z,1012.0
2019-01-12T04:14:53.499Z,1012.0
2019-01-12T04:15:54.860Z,1012.0
2019-01-12T04:16:56.235Z,1012.0
2019-01-12T04:17:57.587Z,1012.0
2019-01-12T04:18:58.958Z,1012.0
2019-01-12T04:20:00.323Z,1012.0
2019-01-12T04:21:01.688Z,1012.0
2019-01-12T04:22:03.046Z,1012.0
2019-01-12T04:23:04.417Z,1011.9
2019-01-12T04:24:05.782Z,1012.0
2019-01-12T04:25:07.147Z,1012.0
2019-01-12T04:26:08.521Z,1012.0
2019-01-12T04:27:09.879Z,1011.9
2019-01-12T04:28:11.232Z,1012.0
2019-01-12T04:29:12.602Z,1011.9
2019-01-12T04:30:13.969Z,1012.0
2019-01-12T04:31:15.332Z,1011.9
2019-01-12T04:32:16.702Z,1012.0
2019-01-12T04:33:18.074Z,1011.9
2019-01-12T04:34:19.437Z,1011.9
2019-01-12T04:35:20.800Z,1011.9
2019-01-12T04:36:22.164Z,1011.9
2019-01-12T04:37:23.532Z,1011.9
2019-01-12T04:38:24.896Z,1011.9
2019-01-12T04:39:26.283Z,1011.9
2019-01-12T04:40:27.632Z,1011.8
2019-01-12T04:41:28.989Z,1011.8
2019-01-12T04:42:30.360Z,1011.9
2019-01-12T04:43:31.724Z,1011.8
2019-01-12T04:44:33.089Z,1011.9
2019-01-12T04:45:34.477Z,1011.8
2019-01-12T04:46:35.965Z,1011.8
2019-01-12T04:47:37.367Z,1011.9
2019-01-12T04:48:38.732Z,1011.8
2019-01-12T04:49:40.115Z,1011.9
2019-01-12T04:50:41.471Z,1011.9
2019-01-12T04:51:42.900Z,1011.9
2019-01-12T04:52:44.403Z,1011.9
2019-01-12T04:53:45.835Z,1012.0
2019-01-12T04:54:47.337Z,1011.9
2019-01-12T04:55:49.001Z,1012.0
2019-01-12T04:56:50.480Z,1011.9
2019-01-12T04:57:51.964Z,1012.0
2019-01-12T04:58:53.415Z,1011.9
2019-01-12T04:59:54.804Z,1011.9
2019-01-12T05:00:56.190Z,1011.9
2019-01-12T05:01:57.595Z,1011.9
2019-01-12T05:02:59.009Z,1011.9
2019-01-12T05:04:00.446Z,1011.9
2019-01-12T05:05:01.818Z,1011.9
2019-01-12T05:06:03.269Z,1011.8
2019-01-12T05:07:04.664Z,1011.8
2019-01-12T05:08:06.142Z,1011.8
2019-01-12T05:09:07.647Z,1011.9
2019-01-12T05:10:09.063Z,1011.9
2019-01-12T05:11:10.470Z,1011.8
2019-01-12T05:12:11.883Z,1011.9
2019-01-12T05:13:13.290Z,1011.8
2019-01-12T05:14:14.681Z,1011.8
2019-01-12T05:15:16.077Z,1011.9
2019-01-12T05:16:17.574Z,1011.8
2019-01-12T05:17:18.977Z,1011.8
2019-01-12T05:18:20.533Z,1011.9
2019-01-12T05:19:21.928Z,1011.8
2019-01-12T05:20:23.298Z,1011.8
2019-01-12T05:21:24.697Z,1011.8
2019-01-12T05:22:26.078Z,1011.9
2019-01-12T05:23:27.449Z,1011.9
2019-01-12T05:24:28.818Z,1011.8
2019-01-12T05:25:30.180Z,1011.8
2019-01-12T05:26:31.668Z,1011.9
2019-01-12T05:27:33.074Z,1011.8
2019-01-12T05:28:34.448Z,1011.9
2019-01-12T05:29:35.844Z,1011.9
2019-01-12T05:30:37.227Z,1011.9
2019-01-12T05:31:38.599Z,1011.9
2019-01-12T05:32:39.978Z,1011.9
2019-01-12T05:33:41.359Z,1011.9
2019-01-12T05:34:42.739Z,1011.8
2019-01-12T05:35:44.135Z,1011.8
2019-01-12T05:36:45.506Z,1011.8
2019-01-12T05:37:46.885Z,1011.8
2019-01-12T05:38:48.279Z,1011.8
2019-01-12T05:39:49.650Z,1011.8
2019-01-12T05:40:51.035Z,1011.9
2019-01-12T05:41:52.415Z,1011.8
2019-01-12T05:42:53.797Z,1011.8
2019-01-12T05:43:55.173Z,1011.8
2019-01-12T05:44:56.535Z,1011.8
2019-01-12T05:45:57.905Z,1011.8
2019-01-12T05:46:59.317Z,1011.8
2019-01-12T05:48:00.696Z,1011.8
2019-01-12T05:49:02.083Z,1011.9
2019-01-12T05:50:03.457Z,1011.8
2019-01-12T05:51:04.853Z,1011.8
2019-01-12T05:52:06.217Z,1011.8
2019-01-12T05:53:07.586Z,1011.8
2019-01-12T05:54:08.946Z,1011.7
2019-01-12T05:55:10.311Z,1011.8
2019-01-12T05:56:11.678Z,1011.8
2019-01-12T05:57:13.046Z,1011.7
2019-01-12T05:58:14.410Z,1011.8
2019-01-12T05:59:15.773Z,1011.8
2019-01-12T06:00:17.138Z,1011.8
2019-01-12T06:01:18.506Z,1011.8
2019-01-12T06:02:19.869Z,1011.8
2019-01-12T06:03:21.223Z,1011.8
2019-01-12T06:04:22.588Z,1011.9
2019-01-12T06:05:23.959Z,1011.9
2019-01-12T06:06:25.327Z,1011.8
2019-01-12T06:07:26.690Z,1011.8
2019-01-12T06:08:28.050Z,1011.8
2019-01-12T06:09:29.414Z,1011.8
2019-01-12T06:10:30.778Z,1011.8
2019-01-12T06:11:32.143Z,1011.8
2019-01-12T06:12:33.511Z,1011.8
2019-01-12T06:13:34.868Z,1011.8
2019-01-12T06:14:36.235Z,1011.8
2019-01-12T06:15:37.598Z,1011.8
2019-01-12T06:16:38.961Z,1011.9
2019-01-12T06:17:40.325Z,1011.8
2019-01-12T06:18:41.687Z,1011.8
2019-01-12T06:19:43.050Z,1011.8
2019-01-12T06:20:44.416Z,1011.8
2019-01-12T06:21:45.780Z,1011.8
2019-01-12T06:22:47.143Z,1011.8
2019-01-12T06:23:48.505Z,1011.8
2019-01-12T06:24:49.867Z,1011.8
2019-01-12T06:25:51.231Z,1011.8
2019-01-12T06:26:52.610Z,1011.8
2019-01-12T06:27:53.965Z,1011.7
2019-01-12T06:28:55.324Z,1011.8
2019-01-12T06:29:56.686Z,1011.7
2019-01-12T06:30:58.046Z,1011.7
2019-01-12T06:31:59.416Z,1011.7
2019-01-12T06:33:00.777Z,1011.7
2019-01-12T06:34:02.141Z,1011.6
2019-01-12T06:35:03.507Z,1011.5
2019-01-12T06:36:04.870Z,1011.6
2019-01-12T06:37:06.233Z,1011.5
2019-01-12T06:38:07.592Z,1011.5
2019-01-12T06:39:08.955Z,1011.5
2019-01-12T06:40:10.321Z,1011.5
2019-01-12T06:41:11.685Z,1011.4
2019-01-12T06:42:13.051Z,1011.4
2019-01-12T06:43:14.409Z,1011.4
2019-01-12T06:44:15.787Z,1011.4
2019-01-12T06:45:17.147Z,1011.4
2019-01-12T06:46:18.509Z,1011.4
2019-01-12T06:47:19.874Z,1011.4
2019-01-12T06:48:21.240Z,1011.4
2019-01-12T06:49:22.605Z,1011.4
2019-01-12T06:50:23.971Z,1011.4
2019-01-12T06:51:25.336Z,1011.4
2019-01-12T06:52:26.696Z,1011.3
2019-01-12T06:53:28.061Z,1011.3
2019-01-12T06:54:29.427Z,1011.3
2019-01-12T06:55:30.796Z,1011.3
2019-01-12T06:56:32.164Z,1011.2
2019-01-12T06:57:33.527Z,1011.2
2019-01-12T06:58:34.890Z,1011.2
2019-01-12T06:59:36.255Z,1011.2
2019-01-12T07:00:37.619Z,1011.2
2019-01-12T07:01:38.981Z,1011.1
2019-01-12T07:02:40.344Z,1011.1
2019-01-12T07:03:41.710Z,1011.1
2019-01-12T07:04:43.073Z,1011.1
2019-01-12T07:05:44.437Z,1011.1
2019-01-12T07:06:45.797Z,1011.1
2019-01-12T07:07:47.165Z,1011.0
2019-01-12T07:08:48.525Z,1011.0
2019-01-12T07:09:49.887Z,1011.1
2019-01-12T07:10:51.252Z,1011.0
2019-01-12T07:11:52.617Z,1011.0
2019-01-12T07:12:53.976Z,1011.0
2019-01-12T07:13:55.340Z,1011.0
2019-01-12T07:14:56.703Z,1011.0
2019-01-12T07:15:58.068Z,1011.0
2019-01-12T07:16:59.431Z,1011.0
2019-01-12T07:18:00.799Z,1011.0
2019-01-12T07:19:02.164Z,1011.0
2019-01-12T07:20:03.528Z,1011.0
2019-01-12T07:21:04.890Z,1010.9
2019-01-12T07:22:06.255Z,1010.9
2019-01-12T07:23:07.618Z,1010.9
2019-01-12T07:24:08.984Z,1010.9
2019-01-12T07:25:10.349Z,1010.9
2019-01-12T07:26:17.401Z,1010.9
2019-01-12T07:27:13.042Z,1010.9
2019-01-12T07:28:14.416Z,1010.9
2019-01-12T07:29:15.774Z,1010.9
2019-01-12T07:30:17.148Z,1010.9
2019-01-12T07:31:18.508Z,1010.9
2019-01-12T07:32:19.882Z,1010.9
2019-01-12T07:33:21.245Z,1010.9
2019-01-12T07:34:22.602Z,1010.8
2019-01-12T07:35:23.969Z,1010.9
2019-01-12T07:36:25.331Z,1010.8
2019-01-12T07:37:26.701Z,1010.8
2019-01-12T07:38:28.063Z,1010.8
2019-01-12T07:39:29.432Z,1010.8
2019-01-12T07:40:30.796Z,1010.8
2019-01-12T07:41:32.159Z,1010.8
2019-01-12T07:42:33.525Z,1010.8
2019-01-12T07:43:34.890Z,1010.8
2019-01-12T07:44:36.258Z,1010.8
2019-01-12T07:45:37.626Z,1010.8
2019-01-12T07:46:38.995Z,1010.7
2019-01-12T07:47:40.353Z,1010.8
2019-01-12T07:48:41.716Z,1010.7
2019-01-12T07:49:43.097Z,1010.7
2019-01-12T07:50:44.476Z,1010.7
2019-01-12T07:51:45.847Z,1010.8
2019-01-12T07:52:47.213Z,1010.8
2019-01-12T07:53:48.577Z,1010.7
2019-01-12T07:54:49.941Z,1010.7
2019-01-12T07:55:51.309Z,1010.7
2019-01-12T07:56:52.674Z,1010.7
2019-01-12T07:57:54.042Z,1010.7
2019-01-12T07:58:55.412Z,1010.7
2019-01-12T07:59:56.779Z,1010.6
2019-01-12T08:00:58.145Z,1010.6
2019-01-12T08:01:59.510Z,1010.7
2019-01-12T08:03:00.877Z,1010.7
2019-01-12T08:04:02.246Z,1010.7
2019-01-12T08:05:03.613Z,1010.6
2019-01-12T08:06:04.980Z,1010.6
2019-01-12T08:07:06.347Z,1010.6
2019-01-12T08:08:07.715Z,1010.6
2019-01-12T08:09:09.156Z,1010.6
2019-01-12T08:10:10.454Z,1010.5
2019-01-12T08:11:11.820Z,1010.4
2019-01-12T08:12:13.187Z,1010.4
2019-01-12T08:13:14.555Z,1010.5
2019-01-12T08:14:15.921Z,1010.4
2019-01-12T08:15:17.288Z,1010.4
2019-01-12T08:16:18.661Z,1010.4
2019-01-12T08:17:20.018Z,1010.4
2019-01-12T08:18:21.397Z,1010.3
2019-01-12T08:19:22.754Z,1010.3
2019-01-12T08:20:24.123Z,1010.3
2019-01-12T08:21:25.490Z,1010.3
2019-01-12T08:22:26.859Z,1010.2
2019-01-12T08:23:28.225Z,1010.1
2019-01-12T08:24:29.588Z,1010.1
2019-01-12T08:25:31.079Z,1010.1
2019-01-12T08:26:32.447Z,1010.1
2019-01-12T08:27:33.815Z,1010.2
2019-01-12T08:28:35.185Z,1010.2
2019-01-12T08:29:36.553Z,1010.2
2019-01-12T08:30:37.921Z,1010.2
2019-01-12T08:31:39.294Z,1010.2
2019-01-12T08:32:40.658Z,1010.2
2019-01-12T08:33:42.022Z,1010.2
2019-01-12T08:34:43.391Z,1010.2
2019-01-12T08:35:44.759Z,1010.2
2019-01-12T08:36:46.126Z,1010.2
2019-01-12T08:37:47.491Z,1010.1
2019-01-12T08:38:48.863Z,1010.1
2019-01-12T08:39:50.229Z,1010.0
2019-01-12T08:40:51.597Z,1010.0
2019-01-12T08:41:52.967Z,1009.9
2019-01-12T08:42:54.336Z,1009.9
2019-01-12T08:43:55.709Z,1009.9
2019-01-12T08:44:57.072Z,1009.9
2019-01-12T08:45:58.441Z,1010.0
2019-01-12T08:46:59.808Z,1009.9
2019-01-12T08:48:01.175Z,1009.9
2019-01-12T08:49:02.554Z,1009.9
2019-01-12T08:50:03.916Z,1009.8
2019-01-12T08:51:05.285Z,1009.9
2019-01-12T08:52:06.651Z,1010.0
2019-01-12T08:53:08.017Z,1010.0
2019-01-12T08:54:09.385Z,1010.1
2019-01-12T08:55:10.753Z,1010.0
2019-01-12T08:56:12.121Z,1010.1
2019-01-12T08:57:13.492Z,1010.1
2019-01-12T08:58:14.859Z,1010.2
2019-01-12T08:59:16.227Z,1010.2
2019-01-12T09:00:18.633Z,1010.3
2019-01-12T09:01:19.716Z,1010.2
2019-01-12T09:02:21.084Z,1010.3
2019-01-12T09:03:22.452Z,1010.2
2019-01-12T09:04:23.820Z,1010.2
2019-01-12T09:05:25.191Z,1010.2
2019-01-12T09:06:26.554Z,1010.1
2019-01-12T09:07:27.920Z,1010.0
2019-01-12T09:08:29.328Z,1009.9
2019-01-12T09:09:30.657Z,1009.9
2019-01-12T09:10:32.192Z,1010.0
2019-01-12T09:11:33.571Z,1010.0
2019-01-12T09:12:35.103Z,1009.9
2019-01-12T09:13:36.439Z,1009.9
2019-01-12T09:14:37.810Z,1009.8
2019-01-12T09:15:39.180Z,1009.8
2019-01-12T09:16:40.543Z,1009.7
2019-01-12T09:17:41.969Z,1009.7
2019-01-12T09:18:43.345Z,1009.7
2019-01-12T09:19:44.714Z,1009.7
2019-01-12T09:20:46.080Z,1009.7
2019-01-12T09:21:47.450Z,1009.7
2019-01-12T09:22:48.820Z,1009.7
2019-01-12T09:23:50.187Z,1009.6
2019-01-12T09:24:51.557Z,1009.6
2019-01-12T09:25:52.925Z,1009.6
2019-01-12T09:26:54.295Z,1009.7
2019-01-12T09:27:55.661Z,1009.6
2019-01-12T09:28:57.032Z,1009.7
2019-01-12T09:29:58.398Z,1009.6
2019-01-12T09:30:59.769Z,1009.6
2019-01-12T09:32:01.141Z,1009.5
2019-01-12T09:33:02.510Z,1009.5
2019-01-12T09:34:03.882Z,1009.5
2019-01-12T09:35:05.249Z,1009.5
2019-01-12T09:36:06.623Z,1009.5
2019-01-12T09:37:07.992Z,1009.5
2019-01-12T09:38:09.360Z,1009.3
2019-01-12T09:39:10.808Z,1009.3
2019-01-12T09:40:12.176Z,1009.3
2019-01-12T09:41:13.548Z,1009.3
2019-01-12T09:42:14.915Z,1009.4
2019-01-12T09:43:16.281Z,1009.3
2019-01-12T09:44:17.649Z,1009.4
2019-01-12T09:45:19.024Z,1009.4
2019-01-12T09:46:20.391Z,1009.4
2019-01-12T09:47:21.760Z,1009.3
2019-01-12T09:48:23.129Z,1009.3
2019-01-12T09:49:24.500Z,1009.3
2019-01-12T09:50:25.870Z,1009.3
2019-01-12T09:51:27.246Z,1009.2
2019-01-12T09:52:28.613Z,1009.3
2019-01-12T09:53:29.980Z,1009.3
2019-01-12T09:54:31.351Z,1009.2
2019-01-12T09:55:32.725Z,1009.2
2019-01-12T09:56:34.084Z,1009.2
2019-01-12T09:57:35.470Z,1009.1
2019-01-12T09:58:36.840Z,1009.2
2019-01-12T09:59:38.210Z,1009.1
2019-01-12T10:00:39.582Z,1009.0
2019-01-12T10:01:40.951Z,1009.0
2019-01-12T10:02:42.320Z,1008.9
2019-01-12T10:03:43.691Z,1008.9
2019-01-12T10:04:45.059Z,1008.9
2019-01-12T10:05:46.428Z,1008.9
2019-01-12T10:06:47.798Z,1008.9
2019-01-12T10:07:49.169Z,1008.9
2019-01-12T10:08:50.541Z,1009.0
2019-01-12T10:09:51.912Z,1008.9
2019-01-12T10:10:53.277Z,1008.9
2019-01-12T10:11:54.645Z,1008.9
2019-01-12T10:12:56.013Z,1008.9
2019-01-12T10:13:57.382Z,1008.9
2019-01-12T10:14:58.752Z,1008.8
2019-01-12T10:16:00.121Z,1008.9
2019-01-12T10:17:01.498Z,1008.8
2019-01-12T10:18:02.859Z,1008.7
2019-01-12T10:19:04.228Z,1008.7
2019-01-12T10:20:05.597Z,1008.7
2019-01-12T10:21:06.967Z,1008.7
2019-01-12T10:22:08.344Z,1008.6
2019-01-12T10:23:09.706Z,1008.6
2019-01-12T10:24:11.072Z,1008.6
2019-01-12T10:25:12.441Z,1008.7
2019-01-12T10:26:13.812Z,1008.7
2019-01-12T10:27:15.181Z,1008.6
2019-01-12T10:28:16.547Z,1008.7
2019-01-12T10:29:17.921Z,1008.5
2019-01-12T10:30:19.286Z,1008.6
2019-01-12T10:31:20.663Z,1008.6
2019-01-12T10:32:22.030Z,1008.5
2019-01-12T10:33:23.394Z,1008.5
2019-01-12T10:34:25.268Z,1008.5
2019-01-12T10:35:26.093Z,1008.4
2019-01-12T10:36:27.461Z,1008.3
2019-01-12T10:37:28.832Z,1008.4
2019-01-12T10:38:30.263Z,1008.3
2019-01-12T10:39:31.628Z,1008.4
2019-01-12T10:40:33.004Z,1008.3
2019-01-12T10:41:34.367Z,1008.3
2019-01-12T10:42:35.730Z,1008.3
2019-01-12T10:43:37.147Z,1008.3
2019-01-12T10:44:38.513Z,1008.4
2019-01-12T10:45:39.884Z,1008.4
2019-01-12T10:46:41.248Z,1008.3
2019-01-12T10:47:42.616Z,1008.3
2019-01-12T10:48:43.986Z,1008.3
2019-01-12T10:49:45.360Z,1008.3
2019-01-12T10:50:46.728Z,1008.3
2019-01-12T10:51:48.107Z,1008.2
2019-01-12T10:52:49.474Z,1008.2
2019-01-12T10:53:50.845Z,1008.2
2019-01-12T10:54:52.207Z,1008.1
2019-01-12T10:55:53.579Z,1008.1
2019-01-12T10:56:54.948Z,1008.1
2019-01-12T10:57:56.319Z,1008.2
2019-01-12T10:58:57.687Z,1008.1
2019-01-12T10:59:59.060Z,1008.1
2019-01-12T11:01:00.420Z,1007.9
2019-01-12T11:02:01.791Z,1008.0
2019-01-12T11:03:03.155Z,1007.9
2019-01-12T11:04:04.528Z,1008.0
2019-01-12T11:05:05.892Z,1008.0
2019-01-12T11:06:07.263Z,1008.0
2019-01-12T11:07:08.632Z,1008.0
2019-01-12T11:08:09.998Z,1007.9
2019-01-12T11:09:11.368Z,1008.0
2019-01-12T11:10:12.735Z,1007.9
2019-01-12T11:11:14.103Z,1007.8
2019-01-12T11:12:15.474Z,1007.7
2019-01-12T11:13:16.839Z,1007.6
2019-01-12T11:14:18.213Z,1007.5
2019-01-12T11:15:19.574Z,1007.6
2019-01-12T11:16:20.947Z,1007.6
2019-01-12T11:17:22.316Z,1007.6
2019-01-12T11:18:23.682Z,1007.5
2019-01-12T11:19:25.056Z,1007.5
2019-01-12T11:20:26.421Z,1007.5
2019-01-12T11:21:27.790Z,1007.5
2019-01-12T11:22:29.156Z,1007.4
2019-01-12T11:23:30.531Z,1007.5
2019-01-12T11:24:31.902Z,1007.5
2019-01-12T11:25:33.513Z,1007.4
2019-01-12T11:26:34.888Z,1007.4
2019-01-12T11:27:36.258Z,1007.4
2019-01-12T11:28:37.626Z,1007.4
2019-01-12T11:29:38.997Z,1007.4
2019-01-12T11:30:40.365Z,1007.3
2019-01-12T11:31:41.732Z,1007.3
2019-01-12T11:32:43.096Z,1007.3
2019-01-12T11:33:44.474Z,1007.2
2019-01-12T11:34:45.849Z,1007.3
2019-01-12T11:35:47.219Z,1007.3
2019-01-12T11:36:48.588Z,1007.2
2019-01-12T11:37:49.955Z,1007.2
2019-01-12T11:38:51.320Z,1007.2
2019-01-12T11:39:52.694Z,1007.2
2019-01-12T11:40:54.059Z,1007.2
2019-01-12T11:41:55.433Z,1007.1
2019-01-12T11:42:56.807Z,1007.2
2019-01-12T11:43:58.175Z,1007.1
2019-01-12T11:44:59.591Z,1007.2
2019-01-12T11:46:00.944Z,1007.1
2019-01-12T11:47:02.315Z,1007.2
2019-01-12T11:48:03.684Z,1007.0
2019-01-12T11:49:05.109Z,1007.1
2019-01-12T11:50:06.470Z,1007.1
2019-01-12T11:51:07.859Z,1006.9
2019-01-12T11:52:09.207Z,1007.0
2019-01-12T11:53:10.582Z,1007.0
2019-01-12T11:54:11.948Z,1007.0
2019-01-12T11:55:13.342Z,1006.9
2019-01-12T11:56:14.714Z,1006.8
2019-01-12T11:57:19.130Z,1006.8
2019-01-12T11:58:17.417Z,1006.9
2019-01-12T11:59:18.778Z,1006.8
2019-01-12T12:00:20.162Z,1006.8
2019-01-12T12:01:21.527Z,1006.7
2019-01-12T12:02:22.888Z,1006.7
2019-01-12T12:03:24.267Z,1006.7
2019-01-12T12:04:25.638Z,1006.7
2019-01-12T12:05:27.022Z,1006.6
2019-01-12T12:06:28.405Z,1006.6
2019-01-12T12:07:29.760Z,1006.5
2019-01-12T12:08:31.129Z,1006.5
2019-01-12T12:09:32.530Z,1006.4
2019-01-12T12:10:33.872Z,1006.5
2019-01-12T12:11:35.243Z,1006.4
2019-01-12T12:12:36.621Z,1006.4
2019-01-12T12:13:37.984Z,1006.3
2019-01-12T12:14:39.352Z,1006.3
2019-01-12T12:15:40.722Z,1006.3
2019-01-12T12:16:42.093Z,1006.2
2019-01-12T12:17:43.463Z,1006.2
2019-01-12T12:18:45.184Z,1006.2
2019-01-12T12:19:46.532Z,1006.1
2019-01-12T12:20:47.902Z,1006.1
2019-01-12T12:21:49.298Z,1006.1
2019-01-12T12:22:50.667Z,1006.0
2019-01-12T12:23:52.041Z,1006.1
2019-01-12T12:24:53.443Z,1006.0
2019-01-12T12:25:54.862Z,1006.1
2019-01-12T12:26:56.233Z,1006.0
2019-01-12T12:27:57.619Z,1006.0
2019-01-12T12:28:59.005Z,1006.0
2019-01-12T12:30:00.365Z,1005.9
2019-01-12T12:31:01.736Z,1005.7
2019-01-12T12:32:03.107Z,1005.8
2019-01-12T12:33:04.546Z,1005.8
2019-01-12T12:34:05.911Z,1005.8
2019-01-12T12:35:07.276Z,1005.7
2019-01-12T12:36:08.641Z,1005.7
2019-01-12T12:37:10.010Z,1005.7
2019-01-12T12:38:11.377Z,1005.7
2019-01-12T12:39:12.749Z,1005.7
2019-01-12T12:40:14.134Z,1005.6
2019-01-12T12:41:15.502Z,1005.5
2019-01-12T12:42:16.883Z,1005.6
2019-01-12T12:43:18.249Z,1005.5
2019-01-12T12:44:19.621Z,1005.6
2019-01-12T12:45:20.990Z,1005.6